Edon, OH

10:00 PM EST on November 23, 2014 (GMT -0500)
OHDOT | Change Station
CLOSE
Current Station
Personal Weather Station
Location: Edon, OH
Elevation: 984 ft
Nearby Weather Stations
Active Advisory: Wind Advisory Active Notice: Record Report

Elev 984 ft 41.63 °N, 84.77 °W | Updated 23 hours ago

Rain
Rain
48 °F
Feels Like 48 °F
N
14
Wind Variable Wind from SE
Gusts 19 mph

Today
High -- | Low -- °F
--% Chance of Precip.
Yesterday
High -- | Low -- °F
Precip. -- in
7:37 AM 5:13 PM
Waxing Crescent, 3% visible
Pressure 29.29 in
Visibility 4.0 miles
Clouds Overcast 700 ft
Dew Point 46 °F
Humidity 95%
Rainfall -999.00 in
Snow Depth Not available.
UV 0 out of 12
Pollen .10 out of 12
Air Quality Not available.
Flu Activity Not available.
METAR KANQ 240255Z AUTO 14009KT 4SM OVC007 09/04 A2929 RMK

More Conditions Fewer Conditions

Pressure 29.29 in
Visibility 4.0 miles
Clouds Overcast 700 ft
Dew Point 46 °F
Humidity 95%
Rainfall -999.00 in
Snow Depth Not available.
UV 0 out of 12
Pollen .10 out of 12
Air Quality Not available.
Flu Activity Not available.
METAR KANQ 240255Z AUTO 14009KT 4SM OVC007 09/04 A2929 RMK

More Conditions Fewer Conditions

10-Day Weather Forecast

Almanac

Astronomy

Nov. 23, 2014 Rise Set
Actual Time
Civil Twilight
Nautical Twilight
Astronomical Twilight
Moon
Length of Visible Light
Length of Day
Tomorrow will be .
, % of the Moon is Illuminated

Today's Extremes

State Highs State Lows

Community

WunderPhotos

Upload Photos

1,773,257 photos uploaded!

WunderBlogs® & News

Nearby

Air Quality

  Air Quality AQ Index Pollutant
Not available.

Snow Depth

Station Depth Elevation

Earthquake Activity

City Distance Mag. Time & Date
Minimum magnitude displayed is 2.5.

Coastal Water Temperatures

Place Temperature

Nearby Weather Stations